Time,TemperatureF,DewpointF,PressureIn,WindDirection,WindDirectionDegrees,WindSpeedMPH,WindSpeedGustMPH,Humidity,HourlyPrecipIn,Conditions,Clouds,dailyrainin,SoftwareType,DateUTC
2013-03-29 00:02:00,57.7,24.9,29.95,WNW,292,1.6,-999.0,28,-99.99,,,0.00,Acu-Link.com,2013-03-29 06:02:00,
2013-03-29 00:17:00,57.4,25.4,29.96,WSW,247,2.2,-999.0,29,-99.99,,,0.00,Acu-Link.com,2013-03-29 06:17:00,
2013-03-29 00:32:00,56.7,24.8,29.96,SSW,202,0.0,-999.0,29,-99.99,,,0.00,Acu-Link.com,2013-03-29 06:32:00,
2013-03-29 00:47:00,55.8,24.8,29.96,WNW,292,1.6,-999.0,30,-99.99,,,0.00,Acu-Link.com,2013-03-29 06:47:00,
2013-03-29 01:02:00,55.2,25.1,29.96,WSW,247,2.7,-999.0,31,-99.99,,,0.00,Acu-Link.com,2013-03-29 07:02:00,
2013-03-29 01:18:00,55.2,25.1,29.96,SSW,202,2.7,-999.0,31,-99.99,,,0.00,Acu-Link.com,2013-03-29 07:18:00,
2013-03-29 01:33:00,55.0,24.2,29.96,West,270,2.2,-999.0,30,-99.99,,,0.00,Acu-Link.com,2013-03-29 07:33:00,
2013-03-29 01:48:00,54.5,23.7,29.96,West,270,2.2,-999.0,30,-99.99,,,0.00,Acu-Link.com,2013-03-29 07:48:00,
2013-03-29 02:03:00,54.1,23.4,29.96,SSE,157,0.0,-999.0,30,-99.99,,,0.00,Acu-Link.com,2013-03-29 08:03:00,
2013-03-29 02:19:00,53.6,23.7,29.97,East,90,4.3,-999.0,31,-99.99,,,0.00,Acu-Link.com,2013-03-29 08:19:00,
2013-03-29 02:34:00,53.6,23.7,29.97,SSE,157,2.7,-999.0,31,-99.99,,,0.00,Acu-Link.com,2013-03-29 08:34:00,
2013-03-29 02:49:00,52.9,24.6,29.97,East,90,1.6,-999.0,33,-99.99,,,0.00,Acu-Link.com,2013-03-29 08:49:00,
2013-03-29 03:04:00,52.2,24.7,29.97,ENE,67,0.0,-999.0,34,-99.99,,,0.00,Acu-Link.com,2013-03-29 09:04:00,
2013-03-29 03:19:00,51.6,24.9,29.97,West,270,2.7,-999.0,35,-99.99,,,0.00,Acu-Link.com,2013-03-29 09:19:00,
2013-03-29 03:34:00,50.5,24.6,29.97,ESE,112,2.2,-999.0,36,-99.99,,,0.00,Acu-Link.com,2013-03-29 09:34:00,
2013-03-29 03:49:00,50.7,24.1,29.97,NE,45,1.6,-999.0,35,-99.99,,,0.00,Acu-Link.com,2013-03-29 09:49:00,
2013-03-29 04:04:00,50.0,23.4,29.98,WNW,292,2.7,-999.0,35,-99.99,,,0.00,Acu-Link.com,2013-03-29 10:04:00,
2013-03-29 04:19:00,50.0,23.4,29.97,NNW,337,2.7,-999.0,35,-99.99,,,0.00,Acu-Link.com,2013-03-29 10:19:00,
2013-03-29 04:35:00,49.8,23.3,29.97,NW,315,1.1,-999.0,35,-99.99,,,0.00,Acu-Link.com,2013-03-29 10:35:00,
2013-03-29 04:50:00,49.1,22.6,29.97,NNE,22,0.0,-999.0,35,-99.99,,,0.00,Acu-Link.com,2013-03-29 10:50:00,
2013-03-29 05:05:00,48.2,21.8,29.98,NW,315,1.1,-999.0,35,-99.99,,,0.00,Acu-Link.com,2013-03-29 11:05:00,
2013-03-29 05:20:00,47.8,22.2,29.98,North,0,3.8,-999.0,36,-99.99,,,0.00,Acu-Link.com,2013-03-29 11:20:00,
2013-03-29 05:36:00,48.0,23.0,29.98,NNW,337,1.6,-999.0,37,-99.99,,,0.00,Acu-Link.com,2013-03-29 11:36:00,
2013-03-29 06:21:00,46.9,20.1,30.00,WNW,292,1.6,-999.0,34,-99.99,,,0.00,Acu-Link.com,2013-03-29 12:21:00,
2013-03-29 06:36:00,46.2,19.4,30.01,ESE,112,0.0,-999.0,34,-99.99,,,0.00,Acu-Link.com,2013-03-29 12:36:00,
2013-03-29 06:52:00,45.3,19.3,30.01,West,270,0.0,-999.0,35,-99.99,,,0.00,Acu-Link.com,2013-03-29 12:52:00,
2013-03-29 07:07:00,45.0,19.6,30.02,West,270,1.1,-999.0,36,-99.99,,,0.00,Acu-Link.com,2013-03-29 13:07:00,
2013-03-29 07:22:00,44.8,20.1,30.02,WSW,247,0.0,-999.0,37,-99.99,,,0.00,Acu-Link.com,2013-03-29 13:22:00,
2013-03-29 07:37:00,45.5,20.8,30.03,West,270,0.0,-999.0,37,-99.99,,,0.00,Acu-Link.com,2013-03-29 13:37:00,
2013-03-29 07:52:00,46.9,25.6,30.03,NW,315,0.0,-999.0,43,-99.99,,,0.00,Acu-Link.com,2013-03-29 13:52:00,
2013-03-29 08:08:00,49.1,22.0,30.04,NW,315,0.0,-999.0,34,-99.99,,,0.00,Acu-Link.com,2013-03-29 14:08:00,
2013-03-29 08:23:00,55.2,22.7,30.04,ESE,112,1.6,-999.0,28,-99.99,,,0.00,Acu-Link.com,2013-03-29 14:23:00,
2013-03-29 08:38:00,59.2,24.3,30.05,South,180,2.2,-999.0,26,-99.99,,,0.00,Acu-Link.com,2013-03-29 14:38:00,
2013-03-29 08:53:00,56.1,22.6,30.05,ESE,112,1.6,-999.0,27,-99.99,,,0.00,Acu-Link.com,2013-03-29 14:53:00,
2013-03-29 09:09:00,57.2,23.5,30.05,NE,45,2.2,-999.0,27,-99.99,,,0.00,Acu-Link.com,2013-03-29 15:09:00,
2013-03-29 09:24:00,60.4,23.5,30.05,SSE,157,2.2,-999.0,24,-99.99,,,0.00,Acu-Link.com,2013-03-29 15:24:00,
2013-03-29 09:39:00,62.4,24.1,30.05,SSE,157,3.1,-999.0,23,-99.99,,,0.00,Acu-Link.com,2013-03-29 15:39:00,
2013-03-29 09:54:00,62.8,23.4,30.05,SE,135,3.1,-999.0,22,-99.99,,,0.00,Acu-Link.com,2013-03-29 15:54:00,
2013-03-29 10:09:00,63.9,23.2,30.05,NE,45,2.7,-999.0,21,-99.99,,,0.00,Acu-Link.com,2013-03-29 16:09:00,
2013-03-29 10:25:00,65.8,23.7,30.05,NE,45,4.7,-999.0,20,-99.99,,,0.00,Acu-Link.com,2013-03-29 16:25:00,
2013-03-29 10:40:00,66.0,23.8,30.04,SSE,157,4.7,-999.0,20,-99.99,,,0.00,Acu-Link.com,2013-03-29 16:40:00,
2013-03-29 10:55:00,65.8,23.7,30.04,SSE,157,4.3,-999.0,20,-99.99,,,0.00,Acu-Link.com,2013-03-29 16:55:00,
2013-03-29 11:10:00,67.8,24.1,30.04,SE,135,4.7,-999.0,19,-99.99,,,0.00,Acu-Link.com,2013-03-29 17:10:00,
2013-03-29 11:25:00,66.2,22.7,30.03,WSW,247,2.2,-999.0,19,-99.99,,,0.00,Acu-Link.com,2013-03-29 17:25:00,
2013-03-29 11:41:00,68.2,24.4,30.03,SW,225,4.3,-999.0,19,-99.99,,,0.00,Acu-Link.com,2013-03-29 17:41:00,
2013-03-29 12:26:00,70.5,22.2,30.02,South,180,3.8,-999.0,16,-99.99,,,0.00,Acu-Link.com,2013-03-29 18:26:00,
2013-03-29 12:41:00,72.3,20.5,30.00,SW,225,1.6,-999.0,14,-99.99,,,0.00,Acu-Link.com,2013-03-29 18:41:00,
2013-03-29 12:57:00,72.1,20.3,30.00,SSW,202,4.7,-999.0,14,-99.99,,,0.00,Acu-Link.com,2013-03-29 18:57:00,
2013-03-29 13:12:00,73.4,21.3,29.99,West,270,2.7,-999.0,14,-99.99,,,0.00,Acu-Link.com,2013-03-29 19:12:00,
2013-03-29 13:27:00,73.4,19.6,29.98,South,180,6.3,-999.0,13,-99.99,,,0.00,Acu-Link.com,2013-03-29 19:27:00,
2013-03-29 13:42:00,73.8,19.9,29.97,SW,225,3.1,-999.0,13,-99.99,,,0.00,Acu-Link.com,2013-03-29 19:42:00,
2013-03-29 13:58:00,74.3,20.3,29.97,SSW,202,5.8,-999.0,13,-99.99,,,0.00,Acu-Link.com,2013-03-29 19:58:00,
2013-03-29 14:13:00,77.0,20.5,29.96,West,270,11.0,-999.0,12,-99.99,,,0.00,Acu-Link.com,2013-03-29 20:13:00,
2013-03-29 14:28:00,76.6,22.1,29.94,West,270,11.9,-999.0,13,-99.99,,,0.00,Acu-Link.com,2013-03-29 20:28:00,
2013-03-29 14:43:00,75.9,21.5,29.94,West,270,7.8,-999.0,13,-99.99,,,0.00,Acu-Link.com,2013-03-29 20:43:00,
2013-03-29 14:58:00,75.9,21.5,29.94,WSW,247,9.4,-999.0,13,-99.99,,,0.00,Acu-Link.com,2013-03-29 20:58:00,
2013-03-29 15:14:00,76.6,22.1,29.93,SW,225,14.1,-999.0,13,-99.99,,,0.00,Acu-Link.com,2013-03-29 21:14:00,
2013-03-29 15:29:00,76.3,21.8,29.93,West,270,9.8,-999.0,13,-99.99,,,0.00,Acu-Link.com,2013-03-29 21:29:00,
2013-03-29 15:44:00,75.7,21.4,29.93,NW,315,5.1,-999.0,13,-99.99,,,0.00,Acu-Link.com,2013-03-29 21:44:00,
2013-03-29 15:59:00,74.5,22.2,29.92,WNW,292,7.8,-999.0,14,-99.99,,,0.00,Acu-Link.com,2013-03-29 21:59:00,
2013-03-29 16:14:00,74.5,22.2,29.93,West,270,6.3,-999.0,14,-99.99,,,0.00,Acu-Link.com,2013-03-29 22:14:00,
2013-03-29 16:29:00,75.7,24.8,29.92,SW,225,11.0,-999.0,15,-99.99,,,0.00,Acu-Link.com,2013-03-29 22:29:00,
2013-03-29 16:45:00,75.0,24.2,29.92,West,270,5.8,-999.0,15,-99.99,,,0.00,Acu-Link.com,2013-03-29 22:45:00,
2013-03-29 17:00:00,74.8,24.1,29.91,ESE,112,1.1,-999.0,15,-99.99,,,0.00,Acu-Link.com,2013-03-29 23:00:00,
2013-03-29 17:15:00,75.4,24.5,29.91,West,270,4.3,-999.0,15,-99.99,,,0.00,Acu-Link.com,2013-03-29 23:15:00,
2013-03-29 17:30:00,75.0,24.2,29.91,NW,315,5.8,-999.0,15,-99.99,,,0.00,Acu-Link.com,2013-03-29 23:30:00,
2013-03-29 17:45:00,72.9,22.5,29.91,West,270,11.9,-999.0,15,-99.99,,,0.00,Acu-Link.com,2013-03-29 23:45:00,
2013-03-29 18:01:00,72.1,21.9,29.90,SSW,202,2.2,-999.0,15,-99.99,,,0.00,Acu-Link.com,2013-03-30 00:01:00,
2013-03-29 18:16:00,73.4,22.9,29.90,WSW,247,3.1,-999.0,15,-99.99,,,0.00,Acu-Link.com,2013-03-30 00:16:00,
2013-03-29 18:31:00,70.9,22.5,29.90,West,270,3.1,-999.0,16,-99.99,,,0.00,Acu-Link.com,2013-03-30 00:31:00,
2013-03-29 18:46:00,70.9,22.5,29.91,SE,135,2.7,-999.0,16,-99.99,,,0.00,Acu-Link.com,2013-03-30 00:46:00,
2013-03-29 19:02:00,72.9,24.0,29.91,West,270,2.7,-999.0,16,-99.99,,,0.00,Acu-Link.com,2013-03-30 01:02:00,
2013-03-29 19:17:00,71.4,22.9,29.92,West,270,2.7,-999.0,16,-99.99,,,0.00,Acu-Link.com,2013-03-30 01:17:00,
2013-03-29 19:32:00,69.4,21.3,29.91,West,270,4.3,-999.0,16,-99.99,,,0.00,Acu-Link.com,2013-03-30 01:32:00,
2013-03-29 19:47:00,68.7,20.7,29.91,WNW,292,6.7,-999.0,16,-99.99,,,0.00,Acu-Link.com,2013-03-30 01:47:00,
2013-03-29 20:02:00,67.6,21.3,29.92,NW,315,6.3,-999.0,17,-99.99,,,0.00,Acu-Link.com,2013-03-30 02:02:00,
2013-03-29 20:18:00,66.7,20.5,29.92,West,270,4.3,-999.0,17,-99.99,,,0.00,Acu-Link.com,2013-03-30 02:18:00,
2013-03-29 20:33:00,65.7,21.0,29.93,West,270,3.8,-999.0,18,-99.99,,,0.00,Acu-Link.com,2013-03-30 02:33:00,
2013-03-29 20:48:00,64.0,19.7,29.93,WSW,247,2.2,-999.0,18,-99.99,,,0.00,Acu-Link.com,2013-03-30 02:48:00,
2013-03-29 21:03:00,63.5,20.5,29.94,West,270,2.2,-999.0,19,-99.99,,,0.00,Acu-Link.com,2013-03-30 03:03:00,
2013-03-29 21:18:00,63.3,20.4,29.94,WNW,292,2.2,-999.0,19,-99.99,,,0.00,Acu-Link.com,2013-03-30 03:18:00,
2013-03-29 21:34:00,61.3,21.1,29.95,North,0,4.3,-999.0,21,-99.99,,,0.00,Acu-Link.com,2013-03-30 03:34:00,
2013-03-29 21:49:00,60.6,20.5,29.96,NNW,337,4.3,-999.0,21,-99.99,,,0.00,Acu-Link.com,2013-03-30 03:49:00,
2013-03-29 22:04:00,60.3,20.2,29.96,NW,315,3.8,-999.0,21,-99.99,,,0.00,Acu-Link.com,2013-03-30 04:04:00,
2013-03-29 22:19:00,60.3,21.3,29.97,NW,315,3.1,-999.0,22,-99.99,,,0.00,Acu-Link.com,2013-03-30 04:19:00,
2013-03-29 22:34:00,60.3,21.3,29.97,NNW,337,3.1,-999.0,22,-99.99,,,0.00,Acu-Link.com,2013-03-30 04:34:00,
2013-03-29 22:50:00,60.3,21.3,29.97,NNE,22,4.3,-999.0,22,-99.99,,,0.00,Acu-Link.com,2013-03-30 04:50:00,
2013-03-29 23:05:00,59.2,20.4,29.98,East,90,2.2,-999.0,22,-99.99,,,0.00,Acu-Link.com,2013-03-30 05:05:00,
2013-03-29 23:20:00,56.5,20.1,29.98,SSW,202,0.0,-999.0,24,-99.99,,,0.00,Acu-Link.com,2013-03-30 05:20:00,
2013-03-29 23:35:00,55.0,20.8,29.98,ESE,112,0.0,-999.0,26,-99.99,,,0.00,Acu-Link.com,2013-03-30 05:35:00,
2013-03-29 23:51:00,54.1,20.0,29.99,ESE,112,1.6,-999.0,26,-99.99,,,0.00,Acu-Link.com,2013-03-30 05:51:00,